Briefing drone pour Arpajon-sur-cere

Rechercher une autre localisation

Conditions de vol :


Nous sommes le : Mercredi 30 novembre 2022
Il est 19:52 UTC (20:52 LT)

Lever de soleil : 06:40 UTC (07:40 LT)
Coucher de soleil : 16:37 UTC (17:37 LT)

Météo

L'essentiel des conditions de vol

VIGILANCE MÉTÉO FRANCE - Cantal (15)
Pas de vigilances particulieres
METAR de LFLW
LFLW 301930Z AUTO VRB01KT 8000 NSC 01/00 Q1017

Date d'émission: 30/11/2022
Heure d'émission: 19:30 UTC
Vent: Variable 1 KT (2 km/h)
Visibilité horizontale: 8000 m
Plafond : Pas de nuages significatifs (NSC)
Température: 1 °C
Point de rosée: 0 °C
Humidité: 93%
Pression (QNH): 1017 hPa
Prévision 24h pour Aurillac (1 km)
Vent : 77° pour 2 KT (6 km/h)
Temperature Maxi: 5 °C
Temperature Min: 5 °C
Humidité : 68%
Condition : Nuageux



Warning: count(): Parameter must be an array or an object that implements Countable in /homepages/6/d509196549/htdocs/droneoxygene/briefing.php on line 743
WEBCAM POUR ARPAJON-SUR-CERE

Réglementation

Voler en sécurité

CARTES AERONAUTIQUE 1/500.000
CARTE AZBA (Reseau basse altitude)
CARTES VAC (LFLW)
SUP AIP




Chargement des AIP...
NOTAM (ARPAJON-SUR-CERE + Terrain à proximité / FIR )




Chargement des NOTAMS...
CONTACT PREFECTURE 15


Avertissement : Les données mises à disposition sont indicatives. Oxygène Drone ne pourra être tenu responsable de dégâts causés aux biens et aux personnes.